sensor_id;sensor_type;location;lat;lon;timestamp;pressure;altitude;pressure_sealevel;temperature;humidity
77077;BME280;66003;52.286;104.306;2023-01-29T00:01:44;96504.03;;;-10.87;56.86
77077;BME280;66003;52.286;104.306;2023-01-29T00:04:10;96513.34;;;-10.76;56.71
77077;BME280;66003;52.286;104.306;2023-01-29T00:06:36;96535.44;;;-10.64;56.75
77077;BME280;66003;52.286;104.306;2023-01-29T00:09:02;96549.09;;;-10.54;56.47
77077;BME280;66003;52.286;104.306;2023-01-29T00:11:28;96502.91;;;-10.84;56.84
77077;BME280;66003;52.286;104.306;2023-01-29T00:13:56;96491.63;;;-10.83;56.85
77077;BME280;66003;52.286;104.306;2023-01-29T00:16:22;96500.84;;;-10.81;56.37
77077;BME280;66003;52.286;104.306;2023-01-29T00:18:49;96508.31;;;-10.78;56.30
77077;BME280;66003;52.286;104.306;2023-01-29T00:21:17;96501.19;;;-10.66;55.84
77077;BME280;66003;52.286;104.306;2023-01-29T00:23:44;96534.03;;;-10.31;56.13
77077;BME280;66003;52.286;104.306;2023-01-29T00:26:12;96503.38;;;-10.44;56.08
77077;BME280;66003;52.286;104.306;2023-01-29T00:28:38;96521.84;;;-10.39;56.27
77077;BME280;66003;52.286;104.306;2023-01-29T00:31:12;96495.78;;;-10.73;56.58
77077;BME280;66003;52.286;104.306;2023-01-29T00:33:38;96521.25;;;-10.60;56.65
77077;BME280;66003;52.286;104.306;2023-01-29T00:36:06;96535.13;;;-10.61;56.47
77077;BME280;66003;52.286;104.306;2023-01-29T00:38:33;96539.19;;;-10.59;56.81
77077;BME280;66003;52.286;104.306;2023-01-29T00:41:10;96553.31;;;-10.53;56.54
77077;BME280;66003;52.286;104.306;2023-01-29T00:43:54;96528.38;;;-10.62;56.69
77077;BME280;66003;52.286;104.306;2023-01-29T00:46:39;96533.53;;;-10.72;56.50
77077;BME280;66003;52.286;104.306;2023-01-29T00:49:06;96539.94;;;-10.39;56.67
77077;BME280;66003;52.286;104.306;2023-01-29T00:51:32;96524.47;;;-10.48;56.60
77077;BME280;66003;52.286;104.306;2023-01-29T00:53:58;96518.69;;;-10.60;56.44
77077;BME280;66003;52.286;104.306;2023-01-29T00:56:28;96555.44;;;-10.39;56.48
77077;BME280;66003;52.286;104.306;2023-01-29T00:58:55;96520.22;;;-10.67;56.04
77077;BME280;66003;52.286;104.306;2023-01-29T01:01:22;96542.72;;;-10.60;56.49
77077;BME280;66003;52.286;104.306;2023-01-29T01:04:09;96543.25;;;-10.56;56.52
77077;BME280;66003;52.286;104.306;2023-01-29T01:06:39;96566.75;;;-9.87;56.36
77077;BME280;66003;52.286;104.306;2023-01-29T01:09:06;96545.03;;;-9.58;55.44
77077;BME280;66003;52.286;104.306;2023-01-29T01:11:51;96523.47;;;-9.85;53.90
77077;BME280;66003;52.286;104.306;2023-01-29T01:14:18;96526.56;;;-9.45;53.94
77077;BME280;66003;52.286;104.306;2023-01-29T01:16:46;96534.81;;;-8.90;54.60
77077;BME280;66003;52.286;104.306;2023-01-29T01:19:13;96529.34;;;-8.53;53.99
77077;BME280;66003;52.286;104.306;2023-01-29T01:21:40;96518.25;;;-8.13;51.89
77077;BME280;66003;52.286;104.306;2023-01-29T01:24:11;96521.91;;;-7.82;52.20
77077;BME280;66003;52.286;104.306;2023-01-29T01:26:37;96545.91;;;-7.23;49.40
77077;BME280;66003;52.286;104.306;2023-01-29T01:29:03;96560.16;;;-5.92;51.26
77077;BME280;66003;52.286;104.306;2023-01-29T01:31:29;96546.75;;;-4.98;49.72
77077;BME280;66003;52.286;104.306;2023-01-29T01:33:56;96537.34;;;-4.69;44.44
77077;BME280;66003;52.286;104.306;2023-01-29T01:36:22;96552.00;;;-5.21;44.10
77077;BME280;66003;52.286;104.306;2023-01-29T01:38:48;96549.69;;;-5.61;48.24
77077;BME280;66003;52.286;104.306;2023-01-29T01:41:17;96546.28;;;-6.15;49.66
77077;BME280;66003;52.286;104.306;2023-01-29T01:43:55;96536.09;;;-6.80;48.79
77077;BME280;66003;52.286;104.306;2023-01-29T01:46:23;96562.59;;;-7.01;51.03
77077;BME280;66003;52.286;104.306;2023-01-29T01:49:09;96555.97;;;-7.44;51.67
77077;BME280;66003;52.286;104.306;2023-01-29T01:51:41;96519.28;;;-7.82;50.44
77077;BME280;66003;52.286;104.306;2023-01-29T01:54:25;96542.16;;;-7.61;49.79
77077;BME280;66003;52.286;104.306;2023-01-29T01:57:06;96493.03;;;-7.46;49.02
77077;BME280;66003;52.286;104.306;2023-01-29T02:00:11;96539.00;;;-6.67;50.31
77077;BME280;66003;52.286;104.306;2023-01-29T02:02:41;96502.69;;;-6.92;49.57
77077;BME280;66003;52.286;104.306;2023-01-29T02:05:26;96532.63;;;-6.17;49.81
77077;BME280;66003;52.286;104.306;2023-01-29T02:08:12;96526.34;;;-6.00;50.08
77077;BME280;66003;52.286;104.306;2023-01-29T02:10:57;96517.34;;;-5.90;49.78
77077;BME280;66003;52.286;104.306;2023-01-29T02:13:24;96535.16;;;-4.81;44.41
77077;BME280;66003;52.286;104.306;2023-01-29T02:15:51;96498.84;;;-3.23;40.58
77077;BME280;66003;52.286;104.306;2023-01-29T02:18:19;96519.88;;;-1.39;38.79
77077;BME280;66003;52.286;104.306;2023-01-29T02:23:44;96530.38;;;1.79;32.53
77077;BME280;66003;52.286;104.306;2023-01-29T02:26:52;96529.59;;;2.15;30.10
77077;BME280;66003;52.286;104.306;2023-01-29T02:35:10;96526.28;;;3.21;32.31
77077;BME280;66003;52.286;104.306;2023-01-29T02:51:23;96490.25;;;-0.74;37.08
77077;BME280;66003;52.286;104.306;2023-01-29T02:54:21;96514.41;;;-0.39;35.71
77077;BME280;66003;52.286;104.306;2023-01-29T02:56:58;96501.72;;;-0.49;35.76
77077;BME280;66003;52.286;104.306;2023-01-29T02:59:37;96500.16;;;-0.12;37.02
77077;BME280;66003;52.286;104.306;2023-01-29T03:02:09;96515.22;;;0.19;35.67
77077;BME280;66003;52.286;104.306;2023-01-29T03:04:41;96480.38;;;0.93;34.65
77077;BME280;66003;52.286;104.306;2023-01-29T03:07:15;96466.50;;;1.48;33.75
77077;BME280;66003;52.286;104.306;2023-01-29T03:10:15;96459.44;;;0.80;34.14
77077;BME280;66003;52.286;104.306;2023-01-29T03:12:44;96453.00;;;-0.38;35.59
77077;BME280;66003;52.286;104.306;2023-01-29T03:15:19;96502.94;;;-1.37;36.83
77077;BME280;66003;52.286;104.306;2023-01-29T03:17:54;96498.94;;;-2.07;38.56
77077;BME280;66003;52.286;104.306;2023-01-29T03:20:28;96484.75;;;-3.01;39.79
77077;BME280;66003;52.286;104.306;2023-01-29T03:23:03;96497.13;;;-3.59;41.23
77077;BME280;66003;52.286;104.306;2023-01-29T03:25:33;96501.47;;;-3.66;42.13
77077;BME280;66003;52.286;104.306;2023-01-29T03:28:20;96497.25;;;-3.67;42.81
77077;BME280;66003;52.286;104.306;2023-01-29T03:31:09;96450.47;;;-4.05;43.40
77077;BME280;66003;52.286;104.306;2023-01-29T03:34:11;96486.97;;;-3.90;43.29
77077;BME280;66003;52.286;104.306;2023-01-29T03:37:00;96474.28;;;-3.50;43.01
77077;BME280;66003;52.286;104.306;2023-01-29T03:39:28;96492.88;;;-2.89;42.59
77077;BME280;66003;52.286;104.306;2023-01-29T03:42:04;96448.31;;;-3.09;41.38
77077;BME280;66003;52.286;104.306;2023-01-29T03:53:29;96502.13;;;-1.57;40.13
77077;BME280;66003;52.286;104.306;2023-01-29T03:58:40;96477.31;;;-1.68;41.16
77077;BME280;66003;52.286;104.306;2023-01-29T04:01:21;96468.41;;;-1.73;42.87
77077;BME280;66003;52.286;104.306;2023-01-29T04:06:54;96492.19;;;-1.82;41.50
77077;BME280;66003;52.286;104.306;2023-01-29T04:09:45;96450.47;;;-1.76;42.09
77077;BME280;66003;52.286;104.306;2023-01-29T04:12:16;96483.19;;;-1.46;41.60
77077;BME280;66003;52.286;104.306;2023-01-29T04:14:46;96479.72;;;-1.53;41.35
77077;BME280;66003;52.286;104.306;2023-01-29T04:17:18;96440.81;;;-1.69;40.76
77077;BME280;66003;52.286;104.306;2023-01-29T04:19:46;96480.34;;;-1.38;40.40
77077;BME280;66003;52.286;104.306;2023-01-29T04:25:44;96447.50;;;-1.47;40.59
77077;BME280;66003;52.286;104.306;2023-01-29T04:28:23;96395.25;;;-2.01;40.68
77077;BME280;66003;52.286;104.306;2023-01-29T04:30:56;96437.72;;;-1.99;41.77
77077;BME280;66003;52.286;104.306;2023-01-29T04:33:43;96459.75;;;-2.41;42.41
77077;BME280;66003;52.286;104.306;2023-01-29T04:39:31;96463.97;;;-2.40;43.76
77077;BME280;66003;52.286;104.306;2023-01-29T04:55:26;96447.16;;;-2.18;44.19
77077;BME280;66003;52.286;104.306;2023-01-29T05:00:34;96435.97;;;-1.92;43.29
77077;BME280;66003;52.286;104.306;2023-01-29T05:03:02;96422.28;;;-1.74;43.96
77077;BME280;66003;52.286;104.306;2023-01-29T05:05:29;96406.34;;;-1.93;43.21
77077;BME280;66003;52.286;104.306;2023-01-29T05:07:57;96415.84;;;-1.65;42.96
77077;BME280;66003;52.286;104.306;2023-01-29T05:10:24;96415.03;;;-1.53;42.75
77077;BME280;66003;52.286;104.306;2023-01-29T05:12:57;96423.91;;;-1.40;42.63
77077;BME280;66003;52.286;104.306;2023-01-29T05:15:27;96417.84;;;-1.01;41.96
77077;BME280;66003;52.286;104.306;2023-01-29T05:17:55;96398.63;;;-0.76;41.79
77077;BME280;66003;52.286;104.306;2023-01-29T05:20:26;96404.22;;;-0.65;42.41
77077;BME280;66003;52.286;104.306;2023-01-29T05:22:52;96378.69;;;-0.90;42.98
77077;BME280;66003;52.286;104.306;2023-01-29T05:25:25;96405.69;;;-0.76;42.43
77077;BME280;66003;52.286;104.306;2023-01-29T05:27:52;96381.28;;;-0.83;42.40
77077;BME280;66003;52.286;104.306;2023-01-29T05:30:43;96361.50;;;-0.79;42.75
77077;BME280;66003;52.286;104.306;2023-01-29T05:33:24;96380.97;;;-0.55;42.80
77077;BME280;66003;52.286;104.306;2023-01-29T05:35:51;96385.13;;;-0.34;42.65
77077;BME280;66003;52.286;104.306;2023-01-29T05:38:18;96376.78;;;-0.18;43.72
77077;BME280;66003;52.286;104.306;2023-01-29T05:40:45;96353.75;;;-0.23;42.09
77077;BME280;66003;52.286;104.306;2023-01-29T05:43:24;96346.13;;;0.07;41.67
77077;BME280;66003;52.286;104.306;2023-01-29T05:45:56;96380.00;;;0.47;41.22
77077;BME280;66003;52.286;104.306;2023-01-29T05:48:23;96359.59;;;0.42;40.92
77077;BME280;66003;52.286;104.306;2023-01-29T05:50:50;96375.28;;;0.55;41.20
77077;BME280;66003;52.286;104.306;2023-01-29T05:53:16;96326.56;;;0.28;41.16
77077;BME280;66003;52.286;104.306;2023-01-29T05:55:46;96357.25;;;0.59;41.62
77077;BME280;66003;52.286;104.306;2023-01-29T05:58:13;96357.13;;;0.72;41.40
77077;BME280;66003;52.286;104.306;2023-01-29T06:00:39;96345.66;;;0.66;40.93
77077;BME280;66003;52.286;104.306;2023-01-29T06:03:06;96350.13;;;0.59;41.16
77077;BME280;66003;52.286;104.306;2023-01-29T06:05:32;96354.03;;;0.57;41.75
77077;BME280;66003;52.286;104.306;2023-01-29T06:08:02;96355.56;;;0.64;42.40
77077;BME280;66003;52.286;104.306;2023-01-29T06:10:28;96311.88;;;0.45;42.15
77077;BME280;66003;52.286;104.306;2023-01-29T06:12:54;96349.69;;;0.69;41.60
77077;BME280;66003;52.286;104.306;2023-01-29T06:15:20;96327.25;;;0.66;41.74
77077;BME280;66003;52.286;104.306;2023-01-29T06:17:46;96260.66;;;0.48;41.69
77077;BME280;66003;52.286;104.306;2023-01-29T06:20:12;96305.34;;;1.09;41.50
77077;BME280;66003;52.286;104.306;2023-01-29T06:22:38;96327.59;;;1.43;41.50
77077;BME280;66003;52.286;104.306;2023-01-29T06:25:05;96320.81;;;1.35;41.45
77077;BME280;66003;52.286;104.306;2023-01-29T06:27:31;96287.88;;;1.15;41.03
77077;BME280;66003;52.286;104.306;2023-01-29T06:29:58;96290.47;;;1.33;40.79
77077;BME280;66003;52.286;104.306;2023-01-29T06:32:24;96318.66;;;1.62;40.83
77077;BME280;66003;52.286;104.306;2023-01-29T06:34:50;96302.47;;;1.77;41.22
77077;BME280;66003;52.286;104.306;2023-01-29T06:37:17;96303.66;;;2.04;42.63
77077;BME280;66003;52.286;104.306;2023-01-29T06:39:43;96267.97;;;1.78;40.36
77077;BME280;66003;52.286;104.306;2023-01-29T06:42:09;96280.38;;;1.90;40.68
77077;BME280;66003;52.286;104.306;2023-01-29T06:44:35;96268.22;;;1.77;40.55
77077;BME280;66003;52.286;104.306;2023-01-29T06:47:02;96289.22;;;1.95;41.82
77077;BME280;66003;52.286;104.306;2023-01-29T06:49:28;96256.31;;;1.74;41.72
77077;BME280;66003;52.286;104.306;2023-01-29T06:51:54;96281.19;;;1.90;41.99
77077;BME280;66003;52.286;104.306;2023-01-29T06:54:20;96269.59;;;1.79;41.38
77077;BME280;66003;52.286;104.306;2023-01-29T06:56:46;96280.25;;;1.85;41.53
77077;BME280;66003;52.286;104.306;2023-01-29T06:59:12;96291.63;;;1.97;41.06
77077;BME280;66003;52.286;104.306;2023-01-29T07:01:39;96250.09;;;1.69;41.48
77077;BME280;66003;52.286;104.306;2023-01-29T07:04:10;96289.53;;;1.75;41.77
77077;BME280;66003;52.286;104.306;2023-01-29T07:06:36;96258.91;;;1.63;41.89
77077;BME280;66003;52.286;104.306;2023-01-29T07:09:03;96295.63;;;1.88;42.30
77077;BME280;66003;52.286;104.306;2023-01-29T07:11:30;96265.78;;;1.64;41.49
77077;BME280;66003;52.286;104.306;2023-01-29T07:13:57;96311.56;;;2.04;41.46
77077;BME280;66003;52.286;104.306;2023-01-29T07:16:23;96302.56;;;2.12;41.31
77077;BME280;66003;52.286;104.306;2023-01-29T07:18:50;96309.69;;;2.23;40.71
77077;BME280;66003;52.286;104.306;2023-01-29T07:21:17;96290.88;;;2.20;41.00
77077;BME280;66003;52.286;104.306;2023-01-29T07:23:43;96257.97;;;1.99;40.62
77077;BME280;66003;52.286;104.306;2023-01-29T07:26:10;96287.22;;;2.21;41.20
77077;BME280;66003;52.286;104.306;2023-01-29T07:28:38;96273.00;;;2.10;42.02
77077;BME280;66003;52.286;104.306;2023-01-29T07:31:04;96201.97;;;1.50;41.23
77077;BME280;66003;52.286;104.306;2023-01-29T07:33:31;96262.97;;;1.89;41.38
77077;BME280;66003;52.286;104.306;2023-01-29T07:35:57;96275.69;;;1.92;41.22
77077;BME280;66003;52.286;104.306;2023-01-29T07:38:24;96275.78;;;1.85;40.61
77077;BME280;66003;52.286;104.306;2023-01-29T07:40:53;96286.03;;;1.63;40.85
77077;BME280;66003;52.286;104.306;2023-01-29T07:43:19;96270.41;;;1.50;41.05
77077;BME280;66003;52.286;104.306;2023-01-29T07:45:46;96257.88;;;1.34;41.68
77077;BME280;66003;52.286;104.306;2023-01-29T07:48:13;96211.28;;;1.04;41.78
77077;BME280;66003;52.286;104.306;2023-01-29T07:50:40;96283.88;;;1.42;41.43
77077;BME280;66003;52.286;104.306;2023-01-29T07:53:13;96258.03;;;1.21;41.09
77077;BME280;66003;52.286;104.306;2023-01-29T07:55:42;96291.91;;;1.47;41.31
77077;BME280;66003;52.286;104.306;2023-01-29T07:58:08;96260.66;;;1.21;41.76
77077;BME280;66003;52.286;104.306;2023-01-29T08:00:34;96262.50;;;1.20;41.44
77077;BME280;66003;52.286;104.306;2023-01-29T08:03:06;96278.44;;;1.25;41.67
77077;BME280;66003;52.286;104.306;2023-01-29T08:05:34;96281.19;;;1.30;42.14
77077;BME280;66003;52.286;104.306;2023-01-29T08:08:00;96262.28;;;1.22;41.56
77077;BME280;66003;52.286;104.306;2023-01-29T08:10:27;96278.06;;;1.22;40.49
77077;BME280;66003;52.286;104.306;2023-01-29T08:12:57;96247.91;;;1.06;40.82
77077;BME280;66003;52.286;104.306;2023-01-29T08:15:24;96268.78;;;1.19;41.51
77077;BME280;66003;52.286;104.306;2023-01-29T08:17:51;96269.91;;;0.93;40.56
77077;BME280;66003;52.286;104.306;2023-01-29T08:20:18;96227.38;;;0.60;41.47
77077;BME280;66003;52.286;104.306;2023-01-29T08:22:45;96271.66;;;0.81;42.00
77077;BME280;66003;52.286;104.306;2023-01-29T08:25:11;96245.88;;;0.53;41.67
77077;BME280;66003;52.286;104.306;2023-01-29T08:27:38;96225.13;;;0.45;41.93
77077;BME280;66003;52.286;104.306;2023-01-29T08:30:05;96256.09;;;0.61;41.98
77077;BME280;66003;52.286;104.306;2023-01-29T08:32:32;96223.09;;;0.47;42.17
77077;BME280;66003;52.286;104.306;2023-01-29T08:34:58;96250.03;;;0.61;42.65
77077;BME280;66003;52.286;104.306;2023-01-29T08:37:24;96227.00;;;0.38;42.09
77077;BME280;66003;52.286;104.306;2023-01-29T08:39:50;96221.41;;;0.34;42.76
77077;BME280;66003;52.286;104.306;2023-01-29T08:42:16;96213.03;;;0.19;42.47
77077;BME280;66003;52.286;104.306;2023-01-29T08:44:42;96235.34;;;0.35;42.62
77077;BME280;66003;52.286;104.306;2023-01-29T08:47:08;96218.69;;;0.23;43.16
77077;BME280;66003;52.286;104.306;2023-01-29T08:49:35;96208.94;;;0.05;43.46
77077;BME280;66003;52.286;104.306;2023-01-29T08:52:01;96220.06;;;0.00;42.92
77077;BME280;66003;52.286;104.306;2023-01-29T08:54:28;96228.94;;;0.06;43.98
77077;BME280;66003;52.286;104.306;2023-01-29T08:56:54;96211.41;;;-0.25;43.28
77077;BME280;66003;52.286;104.306;2023-01-29T08:59:20;96212.22;;;-0.24;43.48
77077;BME280;66003;52.286;104.306;2023-01-29T09:01:47;96235.31;;;-0.08;43.91
77077;BME280;66003;52.286;104.306;2023-01-29T09:04:13;96246.63;;;-0.08;44.62
77077;BME280;66003;52.286;104.306;2023-01-29T09:06:39;96232.44;;;-0.31;44.31
77077;BME280;66003;52.286;104.306;2023-01-29T09:09:06;96243.75;;;-0.31;44.78
77077;BME280;66003;52.286;104.306;2023-01-29T09:11:32;96232.72;;;-0.40;45.01
77077;BME280;66003;52.286;104.306;2023-01-29T09:13:58;96236.34;;;-0.41;45.39
77077;BME280;66003;52.286;104.306;2023-01-29T09:16:24;96222.91;;;-0.51;45.50
77077;BME280;66003;52.286;104.306;2023-01-29T09:18:52;96241.47;;;-0.52;45.83
77077;BME280;66003;52.286;104.306;2023-01-29T09:21:19;96232.72;;;-0.71;45.86
77077;BME280;66003;52.286;104.306;2023-01-29T09:23:46;96226.44;;;-0.70;46.47
77077;BME280;66003;52.286;104.306;2023-01-29T09:26:13;96225.09;;;-0.79;46.28
77077;BME280;66003;52.286;104.306;2023-01-29T09:28:39;96195.69;;;-0.94;46.58
77077;BME280;66003;52.286;104.306;2023-01-29T09:31:05;96227.34;;;-0.89;46.73
77077;BME280;66003;52.286;104.306;2023-01-29T09:33:31;96223.19;;;-1.03;46.66
77077;BME280;66003;52.286;104.306;2023-01-29T09:35:57;96214.38;;;-1.16;46.89
77077;BME280;66003;52.286;104.306;2023-01-29T09:38:23;96219.59;;;-1.16;47.17
77077;BME280;66003;52.286;104.306;2023-01-29T09:43:48;96221.06;;;-1.20;47.08
77077;BME280;66003;52.286;104.306;2023-01-29T09:46:25;96221.06;;;-1.26;47.70
77077;BME280;66003;52.286;104.306;2023-01-29T09:49:01;96212.03;;;-1.37;47.80
77077;BME280;66003;52.286;104.306;2023-01-29T09:51:40;96218.50;;;-1.39;47.70
77077;BME280;66003;52.286;104.306;2023-01-29T09:57:49;96220.13;;;-1.52;48.05
77077;BME280;66003;52.286;104.306;2023-01-29T10:00:24;96202.22;;;-1.61;48.08
77077;BME280;66003;52.286;104.306;2023-01-29T10:03:28;96205.47;;;-1.59;48.13
77077;BME280;66003;52.286;104.306;2023-01-29T10:09:04;96210.50;;;-1.58;47.74
77077;BME280;66003;52.286;104.306;2023-01-29T10:23:11;96210.66;;;-1.46;47.54
77077;BME280;66003;52.286;104.306;2023-01-29T10:25:40;96203.41;;;-1.51;47.42
77077;BME280;66003;52.286;104.306;2023-01-29T10:29:04;96151.94;;;-1.83;47.33
77077;BME280;66003;52.286;104.306;2023-01-29T10:33:50;96189.34;;;-1.56;47.32
77077;BME280;66003;52.286;104.306;2023-01-29T10:36:22;96186.91;;;-1.64;47.05
77077;BME280;66003;52.286;104.306;2023-01-29T10:38:51;96203.84;;;-1.60;47.48
77077;BME280;66003;52.286;104.306;2023-01-29T10:44:09;96177.28;;;-1.77;46.68
77077;BME280;66003;52.286;104.306;2023-01-29T10:46:54;96161.78;;;-1.85;46.62
77077;BME280;66003;52.286;104.306;2023-01-29T11:00:29;96179.13;;;-1.77;47.36
77077;BME280;66003;52.286;104.306;2023-01-29T11:03:11;96173.31;;;-1.93;47.47
77077;BME280;66003;52.286;104.306;2023-01-29T11:08:53;96183.19;;;-1.95;47.97
77077;BME280;66003;52.286;104.306;2023-01-29T11:11:28;96180.75;;;-1.96;47.84
77077;BME280;66003;52.286;104.306;2023-01-29T11:14:00;96145.56;;;-2.27;47.91
77077;BME280;66003;52.286;104.306;2023-01-29T11:16:41;96165.69;;;-2.14;48.03
77077;BME280;66003;52.286;104.306;2023-01-29T11:19:07;96166.09;;;-2.24;48.12
77077;BME280;66003;52.286;104.306;2023-01-29T11:21:57;96180.78;;;-2.23;48.67
77077;BME280;66003;52.286;104.306;2023-01-29T11:24:24;96144.59;;;-2.52;48.34
77077;BME280;66003;52.286;104.306;2023-01-29T11:26:53;96093.50;;;-2.87;48.66
77077;BME280;66003;52.286;104.306;2023-01-29T11:31:59;96169.34;;;-2.48;49.13
77077;BME280;66003;52.286;104.306;2023-01-29T11:34:26;96158.84;;;-2.68;48.96
77077;BME280;66003;52.286;104.306;2023-01-29T11:37:04;96137.53;;;-2.78;49.17
77077;BME280;66003;52.286;104.306;2023-01-29T11:39:43;96142.56;;;-2.70;49.43
77077;BME280;66003;52.286;104.306;2023-01-29T11:42:21;96137.75;;;-2.73;49.29
77077;BME280;66003;52.286;104.306;2023-01-29T11:44:48;96156.44;;;-2.76;49.46
77077;BME280;66003;52.286;104.306;2023-01-29T11:47:19;96127.06;;;-2.98;50.01
77077;BME280;66003;52.286;104.306;2023-01-29T11:49:51;96131.47;;;-3.05;49.98
77077;BME280;66003;52.286;104.306;2023-01-29T11:52:21;96138.31;;;-3.04;50.04
77077;BME280;66003;52.286;104.306;2023-01-29T11:55:04;96116.38;;;-3.22;49.98
77077;BME280;66003;52.286;104.306;2023-01-29T11:57:35;96154.78;;;-3.03;50.26
77077;BME280;66003;52.286;104.306;2023-01-29T12:00:20;96120.00;;;-3.23;50.14
77077;BME280;66003;52.286;104.306;2023-01-29T12:05:24;96131.44;;;-3.31;50.66
77077;BME280;66003;52.286;104.306;2023-01-29T12:07:58;96165.22;;;-3.16;50.33
77077;BME280;66003;52.286;104.306;2023-01-29T12:10:38;96158.00;;;-3.21;50.33
77077;BME280;66003;52.286;104.306;2023-01-29T12:13:25;96118.09;;;-3.56;50.40
77077;BME280;66003;52.286;104.306;2023-01-29T12:18:38;96159.53;;;-3.40;50.56
77077;BME280;66003;52.286;104.306;2023-01-29T12:21:27;96167.16;;;-3.38;50.74
77077;BME280;66003;52.286;104.306;2023-01-29T12:24:10;96109.19;;;-3.75;50.59
77077;BME280;66003;52.286;104.306;2023-01-29T12:26:45;96154.25;;;-3.53;50.82
77077;BME280;66003;52.286;104.306;2023-01-29T12:34:49;96144.97;;;-3.62;50.77
77077;BME280;66003;52.286;104.306;2023-01-29T12:40:52;96146.63;;;-3.54;50.73
77077;BME280;66003;52.286;104.306;2023-01-29T12:43:37;96109.97;;;-3.81;50.25
77077;BME280;66003;52.286;104.306;2023-01-29T12:46:10;96099.84;;;-4.04;50.21
77077;BME280;66003;52.286;104.306;2023-01-29T12:48:48;96148.63;;;-3.56;50.30
77077;BME280;66003;52.286;104.306;2023-01-29T12:51:22;96129.50;;;-3.64;50.34
77077;BME280;66003;52.286;104.306;2023-01-29T12:53:58;96142.16;;;-3.67;50.39
77077;BME280;66003;52.286;104.306;2023-01-29T12:56:32;96135.47;;;-3.76;50.53
77077;BME280;66003;52.286;104.306;2023-01-29T12:59:08;96138.06;;;-3.83;50.68
77077;BME280;66003;52.286;104.306;2023-01-29T13:01:44;96140.25;;;-3.86;51.28
77077;BME280;66003;52.286;104.306;2023-01-29T13:04:30;96133.59;;;-3.95;51.56
77077;BME280;66003;52.286;104.306;2023-01-29T13:07:12;96107.94;;;-4.26;52.62
77077;BME280;66003;52.286;104.306;2023-01-29T13:09:43;96123.00;;;-4.22;53.67
77077;BME280;66003;52.286;104.306;2023-01-29T13:12:14;96135.69;;;-4.12;53.30
77077;BME280;66003;52.286;104.306;2023-01-29T13:14:53;96089.19;;;-4.43;53.88
77077;BME280;66003;52.286;104.306;2023-01-29T13:20:17;96126.66;;;-4.16;54.30
77077;BME280;66003;52.286;104.306;2023-01-29T13:22:46;96111.94;;;-4.30;54.21
77077;BME280;66003;52.286;104.306;2023-01-29T13:25:17;96091.22;;;-4.39;54.32
77077;BME280;66003;52.286;104.306;2023-01-29T13:27:45;96122.97;;;-4.28;55.51
77077;BME280;66003;52.286;104.306;2023-01-29T13:30:25;96123.25;;;-4.17;53.68
77077;BME280;66003;52.286;104.306;2023-01-29T13:32:54;96080.94;;;-4.47;53.71
77077;BME280;66003;52.286;104.306;2023-01-29T13:35:38;96112.50;;;-4.35;54.32
77077;BME280;66003;52.286;104.306;2023-01-29T13:38:14;96122.91;;;-4.35;54.13
77077;BME280;66003;52.286;104.306;2023-01-29T13:40:50;96129.13;;;-4.36;54.40
77077;BME280;66003;52.286;104.306;2023-01-29T13:43:21;96085.66;;;-4.63;54.53
77077;BME280;66003;52.286;104.306;2023-01-29T13:45:50;96109.59;;;-4.47;54.27
77077;BME280;66003;52.286;104.306;2023-01-29T13:48:26;96089.91;;;-4.56;54.43
77077;BME280;66003;52.286;104.306;2023-01-29T13:50:59;96100.56;;;-4.51;54.77
77077;BME280;66003;52.286;104.306;2023-01-29T13:53:35;96063.34;;;-4.72;54.83
77077;BME280;66003;52.286;104.306;2023-01-29T13:58:55;96053.72;;;-4.72;54.78
77077;BME280;66003;52.286;104.306;2023-01-29T14:06:49;96078.31;;;-4.47;54.83
77077;BME280;66003;52.286;104.306;2023-01-29T14:12:46;96082.34;;;-4.44;54.48
77077;BME280;66003;52.286;104.306;2023-01-29T14:17:19;96076.53;;;-4.46;54.93
77077;BME280;66003;52.286;104.306;2023-01-29T14:20:02;96072.53;;;-4.42;54.68
77077;BME280;66003;52.286;104.306;2023-01-29T14:22:40;96031.03;;;-4.72;55.45
77077;BME280;66003;52.286;104.306;2023-01-29T14:25:17;96076.75;;;-4.41;55.30
77077;BME280;66003;52.286;104.306;2023-01-29T14:27:48;96076.41;;;-4.31;54.71
77077;BME280;66003;52.286;104.306;2023-01-29T14:30:18;96064.78;;;-4.29;54.09
77077;BME280;66003;52.286;104.306;2023-01-29T14:32:47;96072.69;;;-4.16;53.95
77077;BME280;66003;52.286;104.306;2023-01-29T14:35:22;96064.19;;;-4.24;53.33
77077;BME280;66003;52.286;104.306;2023-01-29T14:37:55;96070.09;;;-4.16;53.13
77077;BME280;66003;52.286;104.306;2023-01-29T14:40:24;96069.66;;;-4.13;52.94
77077;BME280;66003;52.286;104.306;2023-01-29T14:43:04;96074.31;;;-4.08;52.93
77077;BME280;66003;52.286;104.306;2023-01-29T14:45:36;96030.28;;;-4.24;52.51
77077;BME280;66003;52.286;104.306;2023-01-29T14:53:08;95994.31;;;-4.36;52.51
77077;BME280;66003;52.286;104.306;2023-01-29T14:58:12;96026.56;;;-4.09;52.59
77077;BME280;66003;52.286;104.306;2023-01-29T15:00:42;96026.16;;;-4.06;51.79
77077;BME280;66003;52.286;104.306;2023-01-29T15:03:18;96050.94;;;-3.75;51.82
77077;BME280;66003;52.286;104.306;2023-01-29T15:05:46;96039.88;;;-3.77;51.73
77077;BME280;66003;52.286;104.306;2023-01-29T15:08:32;96052.56;;;-3.74;51.26
77077;BME280;66003;52.286;104.306;2023-01-29T15:11:07;96043.34;;;-3.64;51.54
77077;BME280;66003;52.286;104.306;2023-01-29T15:13:59;96032.72;;;-3.69;51.03
77077;BME280;66003;52.286;104.306;2023-01-29T15:16:49;96045.38;;;-3.52;51.65
77077;BME280;66003;52.286;104.306;2023-01-29T15:19:41;96034.72;;;-3.51;51.58
77077;BME280;66003;52.286;104.306;2023-01-29T15:22:17;96040.19;;;-3.46;50.81
77077;BME280;66003;52.286;104.306;2023-01-29T15:24:45;95989.72;;;-3.73;51.11
77077;BME280;66003;52.286;104.306;2023-01-29T15:27:18;96031.94;;;-3.49;51.09
77077;BME280;66003;52.286;104.306;2023-01-29T15:30:03;96041.38;;;-3.48;51.08